Time;durP1;ratioP1;P1;durP2;ratioP2;P2;SDS_P1;SDS_P2;PMS_P1;PMS_P2;Temp;Humidity;BMP_temperature;BMP_pressure;BME280_temperature;BME280_humidity;BME280_pressure;Samples;Min_cycle;Max_cycle;Signal;HPM_P1;HPM_P2
2023/08/02 00:01:01;;;;;;;5.30;2.72;;;18.10;99.90;;;;;;4067329;29;20086;-52
2023/08/02 00:03:04;;;;;;;10.90;3.10;;;18.10;99.90;;;;;;4068241;29;20048;-53
2023/08/02 00:05:07;;;;;;;5.93;2.53;;;18.10;99.90;;;;;;4068113;29;20048;-54
2023/08/02 00:07:09;;;;;;;6.72;2.90;;;18.20;99.90;;;;;;4067096;29;20477;-53
2023/08/02 00:09:11;;;;;;;3.45;2.35;;;18.10;99.90;;;;;;4068004;29;20048;-53
2023/08/02 00:11:16;;;;;;;3.35;2.40;;;18.20;99.90;;;;;;4067764;29;20112;-53
2023/08/02 00:13:18;;;;;;;7.00;2.47;;;18.20;99.90;;;;;;4068059;29;20052;-54
2023/08/02 00:15:21;;;;;;;5.18;2.67;;;18.10;99.90;;;;;;4068149;29;20056;-54
2023/08/02 00:17:23;;;;;;;7.57;2.90;;;18.20;99.90;;;;;;4068075;29;20486;-54
2023/08/02 00:19:26;;;;;;;4.72;2.47;;;18.20;99.90;;;;;;4068178;29;20490;-53
2023/08/02 00:21:28;;;;;;;5.10;2.45;;;18.20;99.90;;;;;;4067529;29;20412;-53
2023/08/02 00:23:31;;;;;;;3.92;2.30;;;18.10;99.90;;;;;;4068023;29;20130;-54
2023/08/02 00:25:33;;;;;;;5.38;1.90;;;18.10;99.90;;;;;;4068207;29;20052;-54
2023/08/02 00:27:35;;;;;;;4.03;2.63;;;18.10;99.90;;;;;;4067892;29;20063;-53
2023/08/02 00:29:37;;;;;;;4.50;1.92;;;18.00;99.90;;;;;;4068031;29;20052;-53
2023/08/02 00:31:39;;;;;;;3.70;2.10;;;18.10;99.90;;;;;;4066965;29;20052;-52
2023/08/02 00:33:41;;;;;;;4.75;2.10;;;18.10;99.90;;;;;;4068141;29;20052;-53
2023/08/02 00:35:45;;;;;;;6.10;2.22;;;18.10;99.90;;;;;;4068136;29;20044;-51
2023/08/02 00:37:48;;;;;;;5.35;1.70;;;18.10;99.90;;;;;;4070234;29;20048;-50
2023/08/02 00:39:51;;;;;;;4.68;1.85;;;18.20;99.90;;;;;;4071178;29;20055;-50
2023/08/02 00:41:53;;;;;;;4.13;1.35;;;18.10;99.90;;;;;;4070636;29;20056;-51
2023/08/02 00:43:55;;;;;;;6.28;1.90;;;18.10;99.90;;;;;;4071014;29;20075;-51
2023/08/02 00:45:57;;;;;;;3.88;1.48;;;18.10;99.90;;;;;;4070929;29;20071;-53
2023/08/02 00:48:00;;;;;;;3.65;1.50;;;18.00;99.90;;;;;;4071153;29;20048;-51
2023/08/02 00:50:03;;;;;;;3.17;1.33;;;18.00;99.90;;;;;;4071046;29;20498;-51
2023/08/02 00:52:06;;;;;;;3.78;2.08;;;18.00;99.90;;;;;;4070829;29;20076;-57
2023/08/02 00:54:09;;;;;;;3.70;1.73;;;18.00;99.90;;;;;;4071505;29;20052;-53
2023/08/02 00:56:13;;;;;;;1.98;1.27;;;18.00;99.90;;;;;;4070945;29;20059;-53
2023/08/02 00:58:15;;;;;;;6.03;2.00;;;18.00;99.90;;;;;;4070781;29;20048;-53
2023/08/02 01:00:17;;;;;;;3.35;1.48;;;18.00;99.90;;;;;;4070682;29;20083;-53
2023/08/02 01:02:20;;;;;;;2.88;1.30;;;18.00;99.90;;;;;;4070160;29;20111;-54
2023/08/02 01:04:22;;;;;;;3.25;1.42;;;17.90;99.90;;;;;;4070862;29;20066;-53
2023/08/02 01:06:32;;;;;;;2.95;1.50;;;17.90;99.90;;;;;;4070788;29;20052;-54
2023/08/02 01:08:40;;;;;;;4.80;1.98;;;17.90;99.90;;;;;;4070574;29;20048;-54
2023/08/02 01:10:49;;;;;;;4.03;1.58;;;17.90;99.90;;;;;;4069924;29;20052;-53
2023/08/02 01:12:54;;;;;;;4.55;1.73;;;18.00;99.90;;;;;;4070576;29;20063;-54
2023/08/02 01:15:01;;;;;;;2.35;1.02;;;18.00;99.90;;;;;;4070210;29;20513;-56
2023/08/02 01:17:04;;;;;;;2.88;1.40;;;17.90;99.90;;;;;;4071313;29;20052;-54
2023/08/02 01:19:08;;;;;;;3.13;1.10;;;17.90;99.90;;;;;;4070622;29;20044;-53
2023/08/02 01:21:12;;;;;;;2.33;0.95;;;17.90;99.90;;;;;;4069884;29;20051;-53
2023/08/02 01:23:14;;;;;;;5.93;1.20;;;17.80;99.90;;;;;;4070409;29;20045;-52
2023/08/02 01:25:16;;;;;;;3.92;1.10;;;17.90;99.90;;;;;;4070491;29;20060;-54
2023/08/02 01:27:23;;;;;;;2.78;1.15;;;17.90;99.90;;;;;;4070492;29;20052;-54
2023/08/02 01:29:27;;;;;;;1.73;0.90;;;18.00;99.90;;;;;;4069929;29;20054;-53
2023/08/02 01:31:32;;;;;;;3.07;1.07;;;17.90;99.90;;;;;;4070032;29;20055;-54
2023/08/02 01:33:36;;;;;;;;;;;17.90;99.90;;;;;;4071036;29;20127;-53
2023/08/02 01:35:38;;;;;;;2.78;1.10;;;17.90;99.90;;;;;;4070237;29;20013;-53
2023/08/02 01:37:42;;;;;;;2.53;0.85;;;17.90;99.90;;;;;;4070389;29;20131;-54
2023/08/02 01:39:45;;;;;;;2.83;0.70;;;17.90;99.90;;;;;;4070333;29;20173;-53
2023/08/02 01:41:47;;;;;;;2.28;0.80;;;17.80;99.90;;;;;;4069599;29;20048;-53
2023/08/02 01:43:49;;;;;;;2.90;0.80;;;17.90;99.90;;;;;;4070014;29;20056;-54
2023/08/02 01:45:51;;;;;;;1.58;0.80;;;17.90;99.90;;;;;;4070306;29;20083;-54
2023/08/02 01:47:54;;;;;;;1.23;0.70;;;17.90;99.90;;;;;;4069901;29;20044;-54
2023/08/02 01:49:56;;;;;;;3.08;1.02;;;17.90;99.90;;;;;;4069532;29;20052;-51
2023/08/02 01:51:58;;;;;;;2.58;0.98;;;17.90;99.90;;;;;;4069267;29;20048;-51
2023/08/02 01:54:01;;;;;;;1.60;0.88;;;17.90;99.90;;;;;;4070119;29;20048;-50
2023/08/02 01:56:03;;;;;;;1.42;0.77;;;18.00;99.90;;;;;;4070224;29;20079;-51
2023/08/02 01:58:05;;;;;;;2.72;1.00;;;17.90;99.90;;;;;;4069628;29;20051;-51
2023/08/02 02:00:08;;;;;;;5.38;0.82;;;18.00;99.90;;;;;;4070065;29;20504;-51
2023/08/02 02:02:10;;;;;;;0.85;0.75;;;18.00;99.90;;;;;;4069261;29;20123;-50
2023/08/02 02:04:12;;;;;;;1.73;0.90;;;18.00;99.90;;;;;;4069844;29;20489;-50
2023/08/02 02:06:15;;;;;;;1.88;0.70;;;17.90;99.90;;;;;;4069795;29;20083;-51
2023/08/02 02:08:16;;;;;;;1.73;0.85;;;18.00;99.90;;;;;;4069760;29;20390;-50
2023/08/02 02:10:20;;;;;;;2.75;1.10;;;17.90;99.90;;;;;;4069821;29;20056;-51
2023/08/02 02:12:22;;;;;;;3.88;1.10;;;18.00;99.90;;;;;;4069071;29;20060;-51
2023/08/02 02:14:24;;;;;;;4.00;1.10;;;17.90;99.90;;;;;;4069971;29;20080;-51
2023/08/02 02:16:26;;;;;;;4.28;1.10;;;17.90;99.90;;;;;;4069941;29;20390;-51
2023/08/02 02:18:28;;;;;;;2.10;0.80;;;17.90;99.90;;;;;;4069627;29;20410;-51
2023/08/02 02:20:30;;;;;;;1.80;1.17;;;18.00;99.90;;;;;;4068580;29;20060;-51
2023/08/02 02:22:32;;;;;;;2.13;1.20;;;17.90;99.90;;;;;;4067918;29;20131;-51
2023/08/02 02:24:34;;;;;;;5.85;1.30;;;17.90;99.90;;;;;;4069814;29;20533;-50
2023/08/02 02:26:38;;;;;;;2.13;0.80;;;18.00;99.90;;;;;;4069433;29;20068;-54
2023/08/02 02:28:40;;;;;;;2.08;0.93;;;17.90;99.90;;;;;;4069606;29;20058;-51
2023/08/02 02:30:43;;;;;;;3.47;1.17;;;18.00;99.90;;;;;;4069582;29;20112;-50
2023/08/02 02:32:45;;;;;;;1.02;0.75;;;18.00;99.90;;;;;;4068831;29;20048;-50
2023/08/02 02:34:47;;;;;;;3.70;1.20;;;18.00;99.90;;;;;;4069645;29;20048;-53
2023/08/02 02:36:49;;;;;;;3.83;1.27;;;18.00;99.90;;;;;;4069500;29;20048;-52
2023/08/02 02:38:51;;;;;;;9.80;1.20;;;18.00;99.90;;;;;;4069499;29;20074;-53
2023/08/02 02:40:53;;;;;;;2.65;1.27;;;18.00;99.90;;;;;;4068920;29;20508;-53
2023/08/02 02:42:57;;;;;;;3.67;1.60;;;18.00;99.90;;;;;;4068941;29;20048;-53
2023/08/02 02:44:59;;;;;;;2.35;1.23;;;18.00;99.90;;;;;;4069145;29;20059;-54
2023/08/02 02:47:01;;;;;;;2.53;1.20;;;18.00;99.90;;;;;;4069396;29;20059;-53
2023/08/02 02:49:03;;;;;;;2.90;1.23;;;18.00;99.90;;;;;;4068976;29;20059;-53
2023/08/02 02:51:05;;;;;;;2.63;1.30;;;18.00;99.90;;;;;;4068709;29;20056;-53
2023/08/02 02:53:07;;;;;;;1.80;0.90;;;18.10;99.90;;;;;;4068954;29;20139;-53
2023/08/02 02:55:09;;;;;;;1.40;1.10;;;18.10;99.90;;;;;;4068834;29;20063;-53
2023/08/02 02:57:11;;;;;;;3.92;1.42;;;18.20;99.90;;;;;;4068962;29;20063;-54
2023/08/02 02:59:15;;;;;;;2.80;1.30;;;18.20;99.90;;;;;;4068956;29;20072;-53
2023/08/02 03:01:17;;;;;;;6.75;1.88;;;18.10;99.90;;;;;;4068270;29;20052;-54
2023/08/02 03:03:19;;;;;;;4.93;1.98;;;18.10;99.90;;;;;;4068992;29;20076;-52
2023/08/02 03:05:21;;;;;;;4.22;1.35;;;18.10;99.90;;;;;;4069134;29;20048;-53
2023/08/02 03:07:24;;;;;;;6.18;1.60;;;18.10;99.90;;;;;;4069100;29;20169;-53
2023/08/02 03:09:26;;;;;;;4.78;1.88;;;18.20;99.90;;;;;;4068605;29;20147;-53
2023/08/02 03:11:28;;;;;;;2.58;1.20;;;18.20;99.90;;;;;;4068109;29;20435;-53
2023/08/02 03:13:30;;;;;;;4.20;1.52;;;18.20;99.90;;;;;;4068538;29;20054;-53
2023/08/02 03:15:33;;;;;;;3.45;1.63;;;18.20;99.90;;;;;;4069001;29;20486;-53
2023/08/02 03:17:35;;;;;;;2.50;1.27;;;18.20;99.90;;;;;;4068681;29;20052;-53
2023/08/02 03:19:38;;;;;;;2.83;1.10;;;18.30;99.90;;;;;;4068741;29;20119;-53
2023/08/02 03:21:40;;;;;;;4.00;1.23;;;18.30;99.90;;;;;;4068272;29;20063;-52
2023/08/02 03:23:42;;;;;;;2.95;1.23;;;18.30;99.90;;;;;;4068858;29;20406;-53
2023/08/02 03:25:44;;;;;;;1.80;1.00;;;18.30;99.90;;;;;;4068258;29;20128;-53
2023/08/02 03:27:46;;;;;;;2.20;0.95;;;18.30;99.90;;;;;;4068494;29;20051;-57
2023/08/02 03:29:48;;;;;;;2.47;1.42;;;18.40;99.90;;;;;;4068773;29;20048;-53
2023/08/02 03:31:52;;;;;;;2.20;0.95;;;18.30;99.90;;;;;;4068008;29;20074;-52
2023/08/02 03:33:54;;;;;;;3.08;0.60;;;18.40;99.90;;;;;;4068736;29;20052;-53
2023/08/02 03:35:56;;;;;;;1.98;0.68;;;18.30;99.90;;;;;;4068530;29;20071;-53
2023/08/02 03:37:58;;;;;;;1.75;0.60;;;18.40;99.90;;;;;;4068909;29;20153;-53
2023/08/02 03:40:00;;;;;;;2.53;0.80;;;18.40;99.90;;;;;;4068104;29;20048;-53
2023/08/02 03:42:03;;;;;;;0.77;0.60;;;18.50;99.90;;;;;;4067718;29;20471;-53
2023/08/02 03:44:05;;;;;;;2.28;0.90;;;18.50;99.90;;;;;;4068463;29;20050;-53
2023/08/02 03:46:07;;;;;;;1.98;0.90;;;18.50;99.90;;;;;;4068474;29;20072;-54
2023/08/02 03:48:10;;;;;;;0.90;0.70;;;18.50;99.90;;;;;;4068578;29;20052;-53
2023/08/02 03:50:12;;;;;;;0.52;0.50;;;18.50;99.90;;;;;;4068584;29;20055;-53
2023/08/02 03:52:14;;;;;;;0.63;0.63;;;18.50;99.90;;;;;;4067513;29;20044;-53
2023/08/02 03:54:16;;;;;;;1.20;0.60;;;18.60;99.90;;;;;;4068118;29;20048;-52
2023/08/02 03:56:18;;;;;;;1.50;0.60;;;18.50;99.90;;;;;;4068373;29;20434;-52
2023/08/02 03:58:21;;;;;;;2.28;0.50;;;18.60;99.90;;;;;;4068273;29;20052;-53
2023/08/02 04:00:23;;;;;;;0.77;0.50;;;18.60;99.90;;;;;;4068228;29;20056;-53
2023/08/02 04:02:25;;;;;;;1.67;0.63;;;18.60;99.90;;;;;;4067533;29;20064;-55
2023/08/02 04:04:29;;;;;;;1.30;0.43;;;18.60;99.90;;;;;;4068130;29;20500;-55
2023/08/02 04:06:31;;;;;;;1.20;0.63;;;18.60;99.90;;;;;;4068153;29;20107;-55
2023/08/02 04:08:33;;;;;;;1.20;0.68;;;18.70;99.90;;;;;;4067987;29;20056;-55
2023/08/02 04:10:36;;;;;;;1.02;0.75;;;18.70;99.90;;;;;;4067971;29;20122;-55
2023/08/02 04:12:38;;;;;;;1.40;0.80;;;18.70;99.90;;;;;;4067170;29;20414;-55
2023/08/02 04:14:40;;;;;;;0.75;0.47;;;18.70;99.90;;;;;;4068025;29;20048;-55
2023/08/02 04:16:42;;;;;;;1.50;0.57;;;18.70;99.90;;;;;;4068036;29;20054;-55
2023/08/02 04:18:45;;;;;;;0.60;0.60;;;18.80;99.90;;;;;;4067976;29;20052;-55
2023/08/02 04:20:48;;;;;;;0.93;0.60;;;18.80;99.90;;;;;;4068443;29;20052;-55
2023/08/02 04:22:50;;;;;;;1.80;0.70;;;18.80;99.90;;;;;;4067659;29;20052;-57
2023/08/02 04:24:52;;;;;;;1.00;0.80;;;18.80;99.90;;;;;;4068544;29;20071;-56
2023/08/02 04:26:54;;;;;;;2.28;0.70;;;18.80;99.90;;;;;;4068090;29;20054;-55
2023/08/02 04:28:56;;;;;;;1.75;0.75;;;18.80;99.90;;;;;;4068205;29;20409;-55
2023/08/02 04:30:58;;;;;;;0.82;0.65;;;18.90;99.90;;;;;;4068039;29;20055;-53
2023/08/02 04:33:00;;;;;;;2.25;0.68;;;18.90;99.90;;;;;;4067429;29;20395;-53
2023/08/02 04:35:03;;;;;;;0.98;0.70;;;18.90;99.90;;;;;;4067007;29;20544;-52
2023/08/02 04:37:06;;;;;;;0.68;0.60;;;18.90;99.90;;;;;;4067523;29;20050;-52
2023/08/02 04:39:09;;;;;;;0.63;0.63;;;18.90;99.90;;;;;;4068039;29;20103;-51
2023/08/02 04:41:14;;;;;;;3.30;0.70;;;18.90;99.90;;;;;;4068142;29;20048;-52
2023/08/02 04:43:16;;;;;;;3.95;0.80;;;19.00;99.90;;;;;;4067436;29;20056;-52
2023/08/02 04:45:18;;;;;;;0.95;0.77;;;19.00;99.90;;;;;;4067885;29;20123;-55
2023/08/02 04:47:21;;;;;;;1.15;0.75;;;19.00;99.90;;;;;;4067876;29;20483;-55
2023/08/02 04:49:23;;;;;;;3.15;0.70;;;19.00;99.90;;;;;;4067787;29;20584;-52
2023/08/02 04:51:25;;;;;;;0.88;0.60;;;19.00;99.90;;;;;;4066925;29;20044;-52
2023/08/02 04:53:28;;;;;;;1.17;0.63;;;19.10;99.90;;;;;;4067728;29;20052;-53
2023/08/02 04:55:39;;;;;;;4.18;0.68;;;19.10;99.90;;;;;;4067821;29;20048;-52
2023/08/02 04:57:41;;;;;;;1.70;0.55;;;19.10;99.90;;;;;;4067847;29;20060;-52
2023/08/02 04:59:43;;;;;;;1.17;0.70;;;19.10;99.90;;;;;;4067832;29;20422;-52
2023/08/02 05:01:45;;;;;;;0.55;0.50;;;19.10;99.90;;;;;;4067412;29;20415;-54
2023/08/02 05:03:48;;;;;;;1.20;0.70;;;19.20;99.90;;;;;;4067599;29;20052;-55
2023/08/02 05:05:51;;;;;;;1.40;0.60;;;19.10;99.90;;;;;;4067497;29;20127;-55
2023/08/02 05:07:53;;;;;;;2.40;0.60;;;19.20;99.90;;;;;;4067976;29;20048;-55
2023/08/02 05:09:57;;;;;;;0.70;0.60;;;19.20;99.90;;;;;;4067616;29;20052;-55
2023/08/02 05:12:00;;;;;;;1.45;0.63;;;19.20;99.90;;;;;;4066998;29;20051;-54
2023/08/02 05:14:02;;;;;;;1.65;0.63;;;19.20;99.90;;;;;;4067564;29;20083;-55
2023/08/02 05:16:05;;;;;;;0.50;0.50;;;19.30;99.90;;;;;;4067804;29;20084;-52
2023/08/02 05:18:07;;;;;;;1.02;0.60;;;19.30;99.90;;;;;;4068007;29;20052;-52
2023/08/02 05:20:10;;;;;;;0.68;0.52;;;19.30;99.90;;;;;;4067581;29;20052;-54
2023/08/02 05:22:12;;;;;;;0.70;0.40;;;19.30;99.90;;;;;;4067283;29;20525;-54
2023/08/02 05:24:14;;;;;;;2.83;0.60;;;19.30;99.90;;;;;;4068751;29;20056;-54
2023/08/02 05:26:17;;;;;;;1.80;0.82;;;19.30;99.90;;;;;;4070461;29;20048;-54
2023/08/02 05:28:19;;;;;;;11.30;1.15;;;19.30;99.90;;;;;;4070349;29;20473;-54
2023/08/02 05:30:21;;;;;;;1.77;0.80;;;19.40;99.90;;;;;;4070357;29;20466;-52
2023/08/02 05:32:23;;;;;;;3.60;0.77;;;19.40;99.90;;;;;;4069788;29;20052;-52
2023/08/02 05:34:26;;;;;;;1.48;1.00;;;19.40;99.90;;;;;;4070468;29;20044;-52
2023/08/02 05:36:28;;;;;;;2.20;0.80;;;19.40;99.90;;;;;;4069962;29;20482;-52
2023/08/02 05:38:32;;;;;;;2.97;0.80;;;19.40;99.90;;;;;;4070210;29;20056;-53
2023/08/02 05:40:34;;;;;;;1.50;0.70;;;19.50;99.90;;;;;;4070314;29;20044;-54
2023/08/02 05:42:38;;;;;;;1.83;0.77;;;19.40;99.90;;;;;;4069607;29;20115;-54
2023/08/02 05:44:40;;;;;;;3.08;0.60;;;19.50;99.90;;;;;;4070229;29;20076;-54
2023/08/02 05:46:43;;;;;;;1.35;0.80;;;19.50;99.90;;;;;;4070381;29;20040;-54
2023/08/02 05:48:45;;;;;;;1.27;0.57;;;19.50;99.90;;;;;;4070242;29;20115;-54
2023/08/02 05:50:47;;;;;;;1.40;0.43;;;19.50;99.90;;;;;;4069778;29;20060;-54
2023/08/02 05:52:49;;;;;;;1.80;0.70;;;19.50;99.90;;;;;;4069570;29;20059;-54
2023/08/02 05:54:51;;;;;;;1.33;0.55;;;19.50;99.90;;;;;;4069948;29;20072;-53
2023/08/02 05:56:54;;;;;;;2.40;0.50;;;19.60;99.90;;;;;;4069969;29;20059;-54
2023/08/02 05:58:57;;;;;;;1.52;0.70;;;19.60;99.90;;;;;;4069951;29;20048;-54
2023/08/02 06:00:59;;;;;;;3.75;0.90;;;19.60;99.90;;;;;;4068697;29;20040;-54
2023/08/02 06:03:01;;;;;;;1.20;0.70;;;19.60;99.90;;;;;;4069303;29;20050;-54
2023/08/02 06:05:04;;;;;;;2.78;0.93;;;19.60;99.90;;;;;;4069534;29;20052;-54
2023/08/02 06:07:06;;;;;;;1.52;0.77;;;19.60;99.90;;;;;;4068803;29;20143;-53
2023/08/02 06:09:08;;;;;;;1.75;0.73;;;19.60;99.90;;;;;;4069857;29;20123;-54
2023/08/02 06:11:12;;;;;;;2.88;0.63;;;19.60;99.90;;;;;;4069802;29;20435;-54
2023/08/02 06:13:14;;;;;;;2.72;0.85;;;19.60;99.90;;;;;;4069136;29;20084;-53
2023/08/02 06:15:17;;;;;;;2.03;0.70;;;19.60;99.90;;;;;;4069868;29;20638;-55
2023/08/02 06:17:19;;;;;;;2.63;0.95;;;19.60;99.90;;;;;;4069807;29;20075;-55
2023/08/02 06:19:21;;;;;;;1.67;0.88;;;19.70;99.90;;;;;;4069267;29;20052;-53
2023/08/02 06:21:24;;;;;;;2.85;0.77;;;19.70;99.90;;;;;;4069625;29;20056;-53
2023/08/02 06:23:26;;;;;;;1.70;0.60;;;19.70;99.90;;;;;;4069069;29;20079;-52
2023/08/02 06:25:28;;;;;;;1.67;0.75;;;19.80;99.90;;;;;;4069520;29;20048;-51
2023/08/02 06:27:30;;;;;;;1.17;0.63;;;19.80;99.90;;;;;;4069791;29;20090;-53
2023/08/02 06:29:32;;;;;;;1.48;0.75;;;19.80;99.90;;;;;;4069569;29;20131;-53
2023/08/02 06:31:35;;;;;;;1.77;0.85;;;19.80;99.90;;;;;;4069301;29;20056;-54
2023/08/02 06:33:37;;;;;;;2.67;0.80;;;19.80;99.90;;;;;;4068684;29;20477;-55
2023/08/02 06:35:39;;;;;;;1.38;0.93;;;19.80;99.90;;;;;;4069300;29;20080;-53
2023/08/02 06:37:41;;;;;;;2.17;0.80;;;19.80;99.90;;;;;;4069561;29;20076;-54
2023/08/02 06:39:44;;;;;;;2.70;0.80;;;19.90;99.90;;;;;;4069448;29;20178;-54
2023/08/02 06:41:46;;;;;;;2.22;0.80;;;19.80;99.90;;;;;;4068848;29;20169;-54
2023/08/02 06:43:48;;;;;;;0.95;0.63;;;19.80;99.90;;;;;;4069356;29;20505;-54
2023/08/02 06:45:50;;;;;;;2.85;1.02;;;19.90;99.90;;;;;;4069273;29;20120;-54
2023/08/02 06:47:53;;;;;;;4.18;0.60;;;19.90;99.90;;;;;;4068813;29;20127;-54
2023/08/02 06:49:56;;;;;;;2.45;0.80;;;20.00;99.90;;;;;;4069217;29;20538;-52
2023/08/02 06:51:58;;;;;;;1.88;0.90;;;20.00;99.90;;;;;;4068769;29;20111;-52
2023/08/02 06:54:00;;;;;;;3.03;0.73;;;20.00;99.90;;;;;;4069228;29;20068;-52
2023/08/02 06:56:10;;;;;;;1.10;0.63;;;20.00;99.90;;;;;;4069297;29;20048;-51
2023/08/02 06:58:12;;;;;;;3.67;0.95;;;20.10;99.90;;;;;;4068919;29;20062;-52
2023/08/02 07:00:14;;;;;;;1.25;0.93;;;20.00;99.90;;;;;;4068966;29;20071;-55
2023/08/02 07:02:16;;;;;;;6.57;0.93;;;20.10;99.90;;;;;;4068191;29;20048;-52
2023/08/02 07:04:20;;;;;;;1.40;0.80;;;20.00;99.90;;;;;;4068872;29;20122;-52
2023/08/02 07:06:22;;;;;;;6.38;3.33;;;20.10;99.90;;;;;;4068914;29;20139;-53
2023/08/02 07:08:24;;;;;;;3.15;1.05;;;20.00;99.90;;;;;;4068980;29;20143;-52
2023/08/02 07:10:28;;;;;;;5.07;2.70;;;20.10;99.90;;;;;;4068744;29;20092;-53
2023/08/02 07:12:30;;;;;;;1.50;1.00;;;20.20;99.90;;;;;;4068255;29;20058;-52
2023/08/02 07:14:32;;;;;;;1.75;0.90;;;20.20;99.90;;;;;;4068641;29;20108;-54
2023/08/02 07:16:39;;;;;;;1.00;0.90;;;20.20;99.90;;;;;;4068626;29;20119;-52
2023/08/02 07:18:41;;;;;;;3.53;0.80;;;20.30;99.90;;;;;;4068889;29;20051;-51
2023/08/02 07:20:45;;;;;;;1.98;0.70;;;20.40;99.90;;;;;;4068887;29;20048;-52
2023/08/02 07:22:47;;;;;;;2.90;0.80;;;20.50;99.90;;;;;;4068112;29;20055;-52
2023/08/02 07:24:49;;;;;;;2.42;0.98;;;20.50;99.90;;;;;;4069226;29;20051;-59
2023/08/02 07:26:51;;;;;;;5.15;2.20;;;20.60;99.90;;;;;;4069556;29;20100;-56
2023/08/02 07:28:53;;;;;;;2.10;0.80;;;20.60;99.90;;;;;;4068881;29;20048;-52
2023/08/02 07:31:05;;;;;;;1.25;0.90;;;20.60;99.90;;;;;;4068304;29;20063;-53
2023/08/02 07:33:07;;;;;;;1.77;1.08;;;20.70;99.90;;;;;;4067861;29;20056;-52
2023/08/02 07:35:09;;;;;;;2.13;1.02;;;20.70;99.90;;;;;;4068496;29;20814;-53
2023/08/02 07:37:12;;;;;;;4.60;0.85;;;20.80;99.90;;;;;;4068314;29;20048;-53
2023/08/02 07:39:14;;;;;;;2.60;1.52;;;20.90;99.90;;;;;;4068415;29;20059;-53
2023/08/02 07:41:17;;;;;;;1.17;0.70;;;21.00;99.90;;;;;;4068707;29;20406;-53
2023/08/02 07:43:23;;;;;;;2.78;0.90;;;21.10;99.90;;;;;;4067967;29;20067;-52
2023/08/02 07:45:25;;;;;;;1.55;0.70;;;21.20;99.90;;;;;;4068337;29;20498;-53
2023/08/02 07:47:27;;;;;;;2.58;0.95;;;21.40;99.90;;;;;;4068023;29;20048;-51
2023/08/02 07:49:29;;;;;;;2.33;1.20;;;21.60;99.90;;;;;;4068617;29;20406;-52
2023/08/02 07:51:31;;;;;;;1.38;0.80;;;21.60;99.90;;;;;;4068938;29;20056;-52
2023/08/02 07:53:34;;;;;;;1.85;0.55;;;21.50;99.90;;;;;;4067904;29;20484;-54
2023/08/02 07:55:38;;;;;;;3.03;0.60;;;21.50;99.90;;;;;;4068776;29;20054;-52
2023/08/02 07:57:40;;;;;;;1.25;0.73;;;21.50;99.90;;;;;;4068532;29;20144;-59
2023/08/02 07:59:42;;;;;;;2.33;0.63;;;21.70;99.90;;;;;;4068445;29;20048;-53
2023/08/02 08:01:45;;;;;;;2.33;1.02;;;21.80;99.90;;;;;;4067222;29;20087;-52
2023/08/02 08:03:47;;;;;;;1.63;0.60;;;22.00;99.90;;;;;;4067520;29;20052;-53
2023/08/02 08:05:49;;;;;;;6.28;2.75;;;22.10;99.90;;;;;;4068923;29;20084;-62
2023/08/02 08:07:51;;;;;;;5.57;1.20;;;22.10;99.90;;;;;;4068770;29;20494;-53
2023/08/02 08:09:54;;;;;;;2.47;0.98;;;22.20;99.90;;;;;;4068646;29;20083;-55
2023/08/02 08:11:57;;;;;;;2.35;1.15;;;22.40;99.90;;;;;;4068979;29;20079;-52
2023/08/02 08:13:59;;;;;;;2.60;1.45;;;22.40;99.90;;;;;;4066118;29;20458;-52
2023/08/02 08:16:01;;;;;;;1.95;0.90;;;22.40;99.90;;;;;;4052578;29;20048;-53
2023/08/02 08:18:03;;;;;;;2.13;0.90;;;22.50;99.90;;;;;;4052677;29;20052;-51
2023/08/02 08:20:06;;;;;;;0.90;0.70;;;22.50;99.90;;;;;;4051234;29;20052;-53
2023/08/02 08:22:08;;;;;;;0.68;0.60;;;22.70;99.90;;;;;;4052175;29;20156;-52
2023/08/02 08:24:10;;;;;;;4.70;0.77;;;22.90;99.90;;;;;;4050166;29;20119;-52
2023/08/02 08:26:14;;;;;;;0.90;0.60;;;22.90;99.90;;;;;;4051092;29;20052;-53
2023/08/02 08:28:16;;;;;;;0.45;0.20;;;22.90;99.90;;;;;;4052125;29;20049;-52
2023/08/02 08:30:18;;;;;;;1.67;0.45;;;22.80;99.90;;;;;;4051201;29;20120;-53
2023/08/02 08:32:26;;;;;;;0.98;0.57;;;22.80;99.90;;;;;;4049855;29;20049;-52
2023/08/02 08:34:29;;;;;;;1.20;0.40;;;22.70;99.90;;;;;;4051490;29;20812;-52
2023/08/02 08:36:31;;;;;;;2.38;0.40;;;22.60;99.90;;;;;;4051878;29;20059;-53
2023/08/02 08:38:33;;;;;;;0.45;0.30;;;22.50;99.90;;;;;;4050698;29;20070;-52
2023/08/02 08:40:35;;;;;;;0.40;0.30;;;22.40;99.90;;;;;;4051843;29;20562;-52
2023/08/02 08:42:47;;;;;;;1.38;0.40;;;22.50;99.90;;;;;;4050154;29;20044;-52
2023/08/02 08:44:53;;;;;;;2.05;0.35;;;22.50;99.90;;;;;;4051454;29;20116;-52
2023/08/02 08:47:00;;;;;;;1.48;0.40;;;22.50;99.90;;;;;;4051650;29;20088;-52
2023/08/02 08:49:03;;;;;;;1.50;0.40;;;22.60;99.90;;;;;;4051706;29;20052;-53
2023/08/02 08:51:08;;;;;;;2.45;0.88;;;22.70;99.90;;;;;;4051712;29;20053;-52
2023/08/02 08:53:17;;;;;;;1.40;0.40;;;22.70;99.90;;;;;;4050853;29;20096;-52
2023/08/02 08:55:22;;;;;;;2.05;0.50;;;22.80;99.90;;;;;;4051259;29;20613;-53
2023/08/02 08:57:24;;;;;;;1.45;0.65;;;22.90;99.90;;;;;;4052133;29;20059;-52
2023/08/02 08:59:27;;;;;;;1.48;0.57;;;23.00;99.90;;;;;;4054237;29;20049;-54
2023/08/02 09:01:30;;;;;;;0.60;0.40;;;23.00;99.90;;;;;;4055244;29;20401;-53
2023/08/02 09:03:33;;;;;;;0.55;0.40;;;23.00;99.90;;;;;;4054492;29;20116;-52
2023/08/02 09:05:36;;;;;;;0.50;0.40;;;23.00;99.90;;;;;;4052308;29;20469;-52
2023/08/02 09:07:38;;;;;;;0.70;0.30;;;23.00;99.90;;;;;;4051752;29;20125;-53
2023/08/02 09:09:40;;;;;;;0.75;0.40;;;23.00;99.90;;;;;;4053943;29;20498;-52
2023/08/02 09:11:42;;;;;;;1.58;0.40;;;23.10;99.90;;;;;;4050670;29;20049;-52
2023/08/02 09:13:45;;;;;;;1.38;0.60;;;23.10;99.90;;;;;;4052751;29;20443;-52
2023/08/02 09:16:05;;;;;;;1.67;0.40;;;23.10;99.90;;;;;;4052811;29;20160;-52
2023/08/02 09:18:07;;;;;;;0.75;0.40;;;23.30;99.90;;;;;;4047296;29;20502;-52
2023/08/02 09:20:09;;;;;;;0.60;0.32;;;23.40;99.90;;;;;;4054154;29;20049;-54
2023/08/02 09:22:13;;;;;;;0.88;0.43;;;23.40;99.90;;;;;;4054194;29;20051;-51
2023/08/02 09:24:15;;;;;;;0.50;0.38;;;23.40;99.90;;;;;;4069157;29;20067;-52
2023/08/02 09:26:20;;;;;;;1.77;0.40;;;23.50;99.90;;;;;;4053876;29;20076;-52
2023/08/02 09:28:22;;;;;;;2.67;1.65;;;23.50;99.90;;;;;;4053760;29;20104;-52
2023/08/02 09:30:27;;;;;;;1.63;0.85;;;23.40;99.90;;;;;;4054084;29;20052;-51
2023/08/02 09:32:30;;;;;;;0.90;0.65;;;23.40;99.90;;;;;;4053313;29;20052;-52
2023/08/02 09:34:41;;;;;;;1.33;0.60;;;23.40;99.90;;;;;;4053880;29;20083;-52
2023/08/02 09:36:44;;;;;;;1.35;0.65;;;23.40;99.90;;;;;;4053467;29;20475;-52
2023/08/02 09:38:54;;;;;;;2.80;0.80;;;23.50;99.90;;;;;;4053987;29;20064;-54
2023/08/02 09:40:56;;;;;;;1.10;0.45;;;23.70;99.90;;;;;;4055778;29;20059;-51
2023/08/02 09:43:18;;;;;;;1.58;0.60;;;23.90;99.90;;;;;;4054853;29;20049;-52
2023/08/02 09:45:31;;;;;;;2.20;0.65;;;23.90;99.90;;;;;;4053907;29;20060;-53
2023/08/02 09:47:34;;;;;;;3.22;0.50;;;23.90;99.90;;;;;;4053633;29;20044;-51
2023/08/02 09:49:37;;;;;;;1.95;0.60;;;23.80;99.90;;;;;;4053889;29;20052;-52
2023/08/02 09:51:40;;;;;;;2.10;0.50;;;23.90;99.90;;;;;;4053933;29;20100;-51
2023/08/02 09:53:53;;;;;;;1.70;0.80;;;23.80;99.90;;;;;;4053466;29;20056;-52
2023/08/02 09:55:58;;;;;;;2.30;0.45;;;23.80;99.90;;;;;;4055522;29;20487;-52
2023/08/02 09:58:00;;;;;;;3.22;0.57;;;23.90;99.90;;;;;;4054219;29;20501;-53
2023/08/02 10:00:06;;;;;;;3.87;0.80;;;23.90;99.90;;;;;;4053735;29;20063;-55
2023/08/02 10:02:10;;;;;;;5.75;0.70;;;23.80;99.00;;;;;;4053413;29;20052;-54
2023/08/02 10:04:15;;;;;;;1.45;0.55;;;23.90;99.20;;;;;;4053915;29;20092;-52
2023/08/02 10:06:19;;;;;;;1.65;0.70;;;23.90;98.90;;;;;;4060496;29;20490;-52
2023/08/02 10:08:23;;;;;;;3.58;0.75;;;23.80;99.00;;;;;;4053763;29;20624;-53
2023/08/02 10:10:29;;;;;;;2.75;0.77;;;23.70;99.90;;;;;;4052659;29;20464;-52
2023/08/02 10:12:37;;;;;;;2.53;0.90;;;23.40;98.80;;;;;;4052687;29;20483;-51
2023/08/02 10:14:40;;;;;;;5.32;1.23;;;23.40;98.70;;;;;;4055711;29;20040;-51
2023/08/02 10:16:44;;;;;;;2.33;0.80;;;23.40;98.00;;;;;;4053583;29;20044;-53
2023/08/02 10:18:47;;;;;;;1.80;0.90;;;23.50;97.00;;;;;;4052433;29;20052;-54
2023/08/02 10:20:52;;;;;;;6.05;1.08;;;23.50;96.20;;;;;;4053265;29;20053;-54
2023/08/02 10:22:54;;;;;;;;;;;23.50;96.70;;;;;;4053509;29;20405;-54
2023/08/02 10:24:58;;;;;;;4.90;1.08;;;23.40;96.30;;;;;;4051301;29;19985;-55
2023/08/02 10:27:04;;;;;;;6.30;1.63;;;23.30;96.80;;;;;;4051442;29;20051;-55
2023/08/02 10:29:08;;;;;;;3.30;1.10;;;23.30;97.20;;;;;;4052742;29;20055;-52
2023/08/02 10:31:17;;;;;;;7.75;1.25;;;23.40;97.00;;;;;;4053105;29;20056;-51
2023/08/02 10:33:20;;;;;;;5.15;1.27;;;23.30;96.30;;;;;;4051864;29;20128;-51
2023/08/02 10:35:59;;;;;;;3.58;0.90;;;23.30;97.00;;;;;;4050505;29;20049;-51
2023/08/02 10:38:01;;;;;;;5.47;1.17;;;23.50;97.50;;;;;;4052861;29;20048;-55
2023/08/02 10:40:04;;;;;;;4.45;1.73;;;23.40;97.40;;;;;;4052902;29;20055;-54
2023/08/02 10:42:06;;;;;;;3.80;1.10;;;23.40;97.40;;;;;;4053007;29;20487;-53